Time;durP1;ratioP1;P1;durP2;ratioP2;P2;SDS_P1;SDS_P2;PMS_P1;PMS_P2;Temp;Humidity;BMP_temperature;BMP_pressure;BME280_temperature;BME280_humidity;BME280_pressure;Samples;Min_cycle;Max_cycle;Signal;HPM_P1;HPM_P2
2023/05/17 00:00:53;;;;;;;2.83;2.50;;;;;;;;;;5141895;27;20593;-65
2023/05/17 00:03:21;;;;;;;2.78;2.47;;;;;;;;;;5141664;27;20221;-65
2023/05/17 00:05:49;;;;;;;2.97;2.30;;;;;;;;;;5142213;27;20480;-64
2023/05/17 00:08:16;;;;;;;3.13;2.40;;;;;;;;;;5142045;27;20207;-65
2023/05/17 00:10:44;;;;;;;3.50;2.25;;;;;;;;;;5142432;27;20202;-65
2023/05/17 00:13:11;;;;;;;3.05;2.30;;;;;;;;;;5142144;27;20203;-65
2023/05/17 00:15:39;;;;;;;2.90;2.03;;;;;;;;;;5142289;27;20266;-65
2023/05/17 00:18:08;;;;;;;2.10;1.90;;;;;;;;;;5141957;27;20202;-65
2023/05/17 00:20:36;;;;;;;2.55;2.03;;;;;;;;;;5141988;27;20246;-65
2023/05/17 00:23:03;;;;;;;2.90;1.92;;;;;;;;;;5142302;27;20253;-66
2023/05/17 00:25:31;;;;;;;2.88;2.30;;;;;;;;;;5141869;27;20206;-65
2023/05/17 00:27:58;;;;;;;2.25;1.80;;;;;;;;;;5128387;27;20239;-65
2023/05/17 00:30:26;;;;;;;2.15;1.88;;;;;;;;;;5120965;28;20207;-65
2023/05/17 00:32:53;;;;;;;2.60;2.10;;;;;;;;;;5121222;28;20206;-65
2023/05/17 00:35:22;;;;;;;2.42;1.83;;;;;;;;;;5120985;28;20211;-65
2023/05/17 00:37:50;;;;;;;2.20;1.73;;;;;;;;;;5120313;28;20540;-65
2023/05/17 00:40:17;;;;;;;1.80;1.70;;;;;;;;;;5120881;28;20211;-65
2023/05/17 00:42:45;;;;;;;1.75;1.60;;;;;;;;;;5121024;28;20241;-65
2023/05/17 00:45:13;;;;;;;1.75;1.65;;;;;;;;;;5120525;28;20199;-65
2023/05/17 00:47:41;;;;;;;2.10;1.90;;;;;;;;;;5120547;28;20214;-65
2023/05/17 00:50:09;;;;;;;2.25;1.70;;;;;;;;;;5120715;28;20211;-66
2023/05/17 00:52:38;;;;;;;2.33;1.75;;;;;;;;;;5120851;28;20199;-65
2023/05/17 00:55:06;;;;;;;2.00;1.80;;;;;;;;;;5120991;28;20612;-66
2023/05/17 00:57:34;;;;;;;2.00;1.67;;;;;;;;;;5120898;28;20628;-65
2023/05/17 01:00:02;;;;;;;1.92;1.73;;;;;;;;;;5121068;28;20230;-65
2023/05/17 01:02:29;;;;;;;1.92;1.70;;;;;;;;;;5120641;28;20223;-65
2023/05/17 01:04:58;;;;;;;2.40;1.50;;;;;;;;;;5120626;28;20632;-65
2023/05/17 01:07:25;;;;;;;2.30;1.75;;;;;;;;;;5120348;28;20236;-65
2023/05/17 01:09:54;;;;;;;1.55;1.45;;;;;;;;;;5120250;28;20208;-64
2023/05/17 01:12:27;;;;;;;1.65;1.50;;;;;;;;;;5120168;28;20199;-65
2023/05/17 01:14:59;;;;;;;1.60;1.50;;;;;;;;;;5120750;28;20203;-65
2023/05/17 01:17:32;;;;;;;1.92;1.77;;;;;;;;;;5120475;28;20853;-64
2023/05/17 01:20:05;;;;;;;1.70;1.48;;;;;;;;;;5120167;28;20635;-65
2023/05/17 01:22:45;;;;;;;1.58;1.40;;;;;;;;;;5120416;28;20572;-66
2023/05/17 01:25:22;;;;;;;2.03;1.60;;;;;;;;;;5120112;28;20203;-65
2023/05/17 01:27:51;;;;;;;1.50;1.38;;;;;;;;;;5120043;27;20646;-65
2023/05/17 01:30:20;;;;;;;1.45;1.23;;;;;;;;;;5119981;28;20211;-65
2023/05/17 01:32:48;;;;;;;1.33;1.23;;;;;;;;;;5120307;28;20198;-65
2023/05/17 01:35:16;;;;;;;1.50;1.35;;;;;;;;;;5120119;28;20203;-65
2023/05/17 01:37:44;;;;;;;1.17;1.00;;;;;;;;;;5120052;28;20231;-65
2023/05/17 01:40:12;;;;;;;1.60;1.30;;;;;;;;;;5120470;28;20207;-65
2023/05/17 01:42:40;;;;;;;1.20;1.10;;;;;;;;;;5119723;28;20262;-65
2023/05/17 01:45:12;;;;;;;1.40;1.20;;;;;;;;;;5119478;28;20268;-65
2023/05/17 01:47:42;;;;;;;1.55;1.20;;;;;;;;;;5119712;28;20312;-65
2023/05/17 01:50:11;;;;;;;1.40;1.20;;;;;;;;;;5119552;28;20455;-66
2023/05/17 01:52:39;;;;;;;1.50;1.20;;;;;;;;;;5119019;28;20540;-65
2023/05/17 01:55:09;;;;;;;1.60;1.20;;;;;;;;;;5119295;28;20285;-65
2023/05/17 01:57:37;;;;;;;1.08;1.05;;;;;;;;;;5119166;28;20275;-66
2023/05/17 02:00:08;;;;;;;1.33;1.23;;;;;;;;;;5119073;28;20302;-65
2023/05/17 02:02:37;;;;;;;1.70;1.55;;;;;;;;;;5119353;28;20225;-65
2023/05/17 02:05:04;;;;;;;1.40;1.30;;;;;;;;;;5111181;28;20208;-65
2023/05/17 02:07:32;;;;;;;1.30;1.20;;;;;;;;;;5111900;28;20225;-65
2023/05/17 02:10:00;;;;;;;1.20;1.10;;;;;;;;;;5110776;28;20202;-65
2023/05/17 02:12:27;;;;;;;1.70;1.00;;;;;;;;;;5115266;28;20491;-65
2023/05/17 02:14:55;;;;;;;1.27;1.17;;;;;;;;;;5114418;28;20251;-66
2023/05/17 02:17:23;;;;;;;1.50;1.05;;;;;;;;;;5112298;28;20207;-66
2023/05/17 02:19:52;;;;;;;1.98;1.00;;;;;;;;;;5112153;28;20234;-65
2023/05/17 02:22:20;;;;;;;1.67;1.35;;;;;;;;;;5110259;28;20289;-66
2023/05/17 02:24:47;;;;;;;1.55;1.05;;;;;;;;;;5109497;28;20478;-65
2023/05/17 02:27:15;;;;;;;1.00;0.80;;;;;;;;;;5106013;28;20665;-66
2023/05/17 02:29:42;;;;;;;1.00;0.90;;;;;;;;;;5105677;28;20671;-65
2023/05/17 02:32:10;;;;;;;1.20;0.90;;;;;;;;;;5112689;28;20319;-65
2023/05/17 02:34:38;;;;;;;1.00;0.90;;;;;;;;;;5100762;28;20212;-65
2023/05/17 02:37:07;;;;;;;1.15;0.93;;;;;;;;;;5103224;28;20230;-65
2023/05/17 02:39:34;;;;;;;1.30;1.10;;;;;;;;;;5097922;28;20206;-66
2023/05/17 02:42:02;;;;;;;0.77;0.70;;;;;;;;;;5102132;28;20529;-66
2023/05/17 02:44:29;;;;;;;1.10;1.00;;;;;;;;;;5102548;28;20237;-65
2023/05/17 02:46:57;;;;;;;0.95;0.90;;;;;;;;;;5102106;28;20219;-65
2023/05/17 02:49:25;;;;;;;1.75;0.80;;;;;;;;;;5104562;28;20300;-66
2023/05/17 02:51:52;;;;;;;1.08;0.80;;;;;;;;;;5105600;28;20256;-65
2023/05/17 02:54:21;;;;;;;1.48;0.90;;;;;;;;;;5102544;28;20593;-65
2023/05/17 02:56:48;;;;;;;1.23;0.95;;;;;;;;;;5110347;28;20293;-65
2023/05/17 02:59:16;;;;;;;1.02;0.93;;;;;;;;;;5108261;28;20207;-65
2023/05/17 03:01:44;;;;;;;1.20;0.77;;;;;;;;;;5106532;28;20202;-67
2023/05/17 03:04:11;;;;;;;0.80;0.80;;;;;;;;;;5106626;28;20228;-65
2023/05/17 03:06:39;;;;;;;0.90;0.80;;;;;;;;;;5104755;28;20242;-65
2023/05/17 03:09:06;;;;;;;0.80;0.80;;;;;;;;;;5117036;28;20297;-64
2023/05/17 03:11:35;;;;;;;1.00;0.90;;;;;;;;;;5117284;28;20203;-64
2023/05/17 03:14:03;;;;;;;0.80;0.80;;;;;;;;;;5118445;28;20211;-66
2023/05/17 03:16:31;;;;;;;0.80;0.80;;;;;;;;;;5117781;28;20203;-65
2023/05/17 03:18:58;;;;;;;1.10;1.00;;;;;;;;;;5117928;28;20301;-64
2023/05/17 03:21:25;;;;;;;0.88;0.80;;;;;;;;;;5118011;28;20206;-65
2023/05/17 03:23:53;;;;;;;0.77;0.77;;;;;;;;;;5117822;28;20671;-65
2023/05/17 03:26:21;;;;;;;1.00;0.80;;;;;;;;;;5118024;28;20298;-65
2023/05/17 03:28:51;;;;;;;1.05;0.90;;;;;;;;;;5138229;27;20230;-64
2023/05/17 03:31:18;;;;;;;0.80;0.80;;;;;;;;;;5138663;27;20209;-65
2023/05/17 03:33:46;;;;;;;0.70;0.70;;;;;;;;;;5138639;28;20202;-65
2023/05/17 03:36:13;;;;;;;0.95;0.93;;;;;;;;;;5138094;27;20587;-65
2023/05/17 03:38:41;;;;;;;0.70;0.70;;;;;;;;;;5138639;27;20597;-65
2023/05/17 03:41:09;;;;;;;0.70;0.70;;;;;;;;;;5138268;27;20210;-65
2023/05/17 03:43:36;;;;;;;0.82;0.65;;;;;;;;;;5138133;27;20230;-65
2023/05/17 03:46:05;;;;;;;0.50;0.50;;;;;;;;;;5138560;27;20237;-64
2023/05/17 03:48:33;;;;;;;0.90;0.85;;;;;;;;;;5138990;27;20327;-65
2023/05/17 03:51:00;;;;;;;0.80;0.70;;;;;;;;;;5138020;27;20203;-65
2023/05/17 03:53:28;;;;;;;0.60;0.60;;;;;;;;;;5138274;27;20575;-64
2023/05/17 03:55:56;;;;;;;0.70;0.70;;;;;;;;;;5137383;27;20206;-64
2023/05/17 03:58:23;;;;;;;1.08;0.80;;;;;;;;;;5137646;27;20202;-65
2023/05/17 04:00:51;;;;;;;0.93;0.80;;;;;;;;;;5138036;27;20542;-64
2023/05/17 04:03:20;;;;;;;1.10;0.85;;;;;;;;;;5138159;27;20237;-67
2023/05/17 04:05:47;;;;;;;0.80;0.63;;;;;;;;;;5138099;28;20465;-65
2023/05/17 04:08:15;;;;;;;0.98;0.70;;;;;;;;;;5137983;27;20536;-65
2023/05/17 04:10:43;;;;;;;0.60;0.60;;;;;;;;;;5137931;27;20302;-65
2023/05/17 04:13:11;;;;;;;1.23;0.88;;;;;;;;;;5138376;27;20198;-67
2023/05/17 04:15:38;;;;;;;1.13;0.90;;;;;;;;;;5137745;27;20255;-65
2023/05/17 04:18:06;;;;;;;1.00;0.75;;;;;;;;;;5137420;28;20242;-65
2023/05/17 04:20:35;;;;;;;0.98;0.75;;;;;;;;;;5137530;27;20203;-65
2023/05/17 04:23:03;;;;;;;0.70;0.70;;;;;;;;;;5139086;27;20248;-66
2023/05/17 04:25:30;;;;;;;0.77;0.63;;;;;;;;;;5140888;27;20255;-66
2023/05/17 04:27:58;;;;;;;0.70;0.70;;;;;;;;;;5140672;27;20628;-64
2023/05/17 04:30:25;;;;;;;1.40;0.80;;;;;;;;;;5141212;27;20209;-65
2023/05/17 04:32:53;;;;;;;1.38;0.73;;;;;;;;;;5140406;27;20202;-65
2023/05/17 04:35:21;;;;;;;0.82;0.75;;;;;;;;;;5140157;27;20213;-65
2023/05/17 04:37:50;;;;;;;1.00;0.88;;;;;;;;;;5140035;27;20258;-66
2023/05/17 04:40:18;;;;;;;0.68;0.68;;;;;;;;;;5140397;27;20213;-66
2023/05/17 04:42:46;;;;;;;0.70;0.70;;;;;;;;;;5140048;27;20206;-66
2023/05/17 04:45:14;;;;;;;0.80;0.80;;;;;;;;;;5139176;27;20234;-67
2023/05/17 04:47:42;;;;;;;1.30;0.63;;;;;;;;;;5139218;27;20202;-66
2023/05/17 04:50:11;;;;;;;1.17;0.70;;;;;;;;;;5139741;27;20263;-66
2023/05/17 04:52:38;;;;;;;0.68;0.68;;;;;;;;;;5139688;27;20213;-66
2023/05/17 04:55:08;;;;;;;1.27;0.98;;;;;;;;;;5139093;27;20233;-66
2023/05/17 04:57:35;;;;;;;0.70;0.60;;;;;;;;;;5138985;27;20202;-66
2023/05/17 05:00:05;;;;;;;0.93;0.75;;;;;;;;;;5139510;27;20534;-66
2023/05/17 05:02:33;;;;;;;2.17;0.80;;;;;;;;;;5138540;27;20216;-66
2023/05/17 05:05:01;;;;;;;0.88;0.70;;;;;;;;;;5138944;27;20558;-67
2023/05/17 05:07:28;;;;;;;0.77;0.70;;;;;;;;;;5138806;27;20256;-66
2023/05/17 05:09:56;;;;;;;0.60;0.60;;;;;;;;;;5138750;27;20310;-66
2023/05/17 05:12:25;;;;;;;0.65;0.65;;;;;;;;;;5138797;27;20259;-66
2023/05/17 05:14:53;;;;;;;1.15;0.68;;;;;;;;;;5138319;27;20198;-66
2023/05/17 05:17:21;;;;;;;1.00;0.90;;;;;;;;;;5138267;27;20198;-66
2023/05/17 05:19:48;;;;;;;0.93;0.80;;;;;;;;;;5137518;27;20546;-66
2023/05/17 05:22:16;;;;;;;0.50;0.50;;;;;;;;;;5138502;27;20206;-66
2023/05/17 05:24:43;;;;;;;1.55;0.80;;;;;;;;;;5138331;27;20515;-67
2023/05/17 05:27:11;;;;;;;0.80;0.80;;;;;;;;;;5136904;27;20772;-66
2023/05/17 05:29:41;;;;;;;0.80;0.70;;;;;;;;;;5137496;27;20285;-66
2023/05/17 05:32:09;;;;;;;0.60;0.60;;;;;;;;;;5137553;27;20205;-67
2023/05/17 05:34:36;;;;;;;0.65;0.60;;;;;;;;;;5136765;27;20194;-67
2023/05/17 05:37:04;;;;;;;1.20;0.68;;;;;;;;;;5137970;27;20251;-66
2023/05/17 05:39:31;;;;;;;0.70;0.70;;;;;;;;;;5136725;27;20198;-66
2023/05/17 05:42:00;;;;;;;1.40;0.85;;;;;;;;;;5136907;27;20614;-66
2023/05/17 05:44:27;;;;;;;1.23;0.70;;;;;;;;;;5136822;27;20629;-66
2023/05/17 05:46:56;;;;;;;0.82;0.82;;;;;;;;;;5136939;27;20237;-67
2023/05/17 05:49:24;;;;;;;0.77;0.70;;;;;;;;;;5137629;27;20203;-66
2023/05/17 05:51:51;;;;;;;0.75;0.60;;;;;;;;;;5137395;27;20228;-66
2023/05/17 05:54:19;;;;;;;0.98;0.88;;;;;;;;;;5137605;27;20198;-66
2023/05/17 05:56:47;;;;;;;0.63;0.63;;;;;;;;;;5137867;27;20206;-66
2023/05/17 05:59:14;;;;;;;0.82;0.70;;;;;;;;;;5137425;27;20301;-68
2023/05/17 06:01:42;;;;;;;1.65;0.70;;;;;;;;;;5137187;27;20759;-66
2023/05/17 06:04:11;;;;;;;0.70;0.70;;;;;;;;;;5136837;27;20694;-66
2023/05/17 06:06:39;;;;;;;2.05;0.85;;;;;;;;;;5136706;27;20538;-66
2023/05/17 06:09:10;;;;;;;1.70;0.80;;;;;;;;;;5138317;27;20214;-66
2023/05/17 06:11:38;;;;;;;1.00;0.60;;;;;;;;;;5136915;27;20598;-67
2023/05/17 06:14:06;;;;;;;1.30;0.77;;;;;;;;;;5137026;27;20198;-66
2023/05/17 06:16:33;;;;;;;1.75;0.70;;;;;;;;;;5136635;27;20270;-66
2023/05/17 06:19:01;;;;;;;0.80;0.80;;;;;;;;;;5137199;27;20709;-66
2023/05/17 06:21:30;;;;;;;1.52;0.70;;;;;;;;;;5137711;27;20202;-66
2023/05/17 06:23:58;;;;;;;0.93;0.70;;;;;;;;;;5137476;27;20222;-66
2023/05/17 06:26:26;;;;;;;0.60;0.60;;;;;;;;;;5137505;27;20202;-66
2023/05/17 06:28:53;;;;;;;0.80;0.70;;;;;;;;;;5137727;27;20206;-66
2023/05/17 06:31:21;;;;;;;1.55;0.85;;;;;;;;;;5137394;27;20246;-66
2023/05/17 06:33:48;;;;;;;0.70;0.68;;;;;;;;;;5137548;27;20557;-66
2023/05/17 06:36:16;;;;;;;0.93;0.70;;;;;;;;;;5137256;27;20300;-66
2023/05/17 06:38:45;;;;;;;2.15;0.90;;;;;;;;;;5137206;27;20205;-66
2023/05/17 06:41:13;;;;;;;0.68;0.68;;;;;;;;;;5136881;27;20213;-66
2023/05/17 06:43:40;;;;;;;1.30;0.85;;;;;;;;;;5136662;27;20202;-66
2023/05/17 06:46:08;;;;;;;0.70;0.70;;;;;;;;;;5137355;27;20198;-66
2023/05/17 06:48:35;;;;;;;1.27;0.80;;;;;;;;;;5136534;27;20198;-66
2023/05/17 06:51:03;;;;;;;1.23;0.93;;;;;;;;;;5136773;27;20241;-66
2023/05/17 06:53:31;;;;;;;1.65;1.00;;;;;;;;;;5136945;27;20225;-66
2023/05/17 06:56:00;;;;;;;1.10;1.00;;;;;;;;;;5136556;27;20205;-66
2023/05/17 06:58:27;;;;;;;1.80;0.90;;;;;;;;;;5137512;27;20202;-66
2023/05/17 07:00:56;;;;;;;1.65;1.00;;;;;;;;;;5136568;27;20235;-66
2023/05/17 07:03:23;;;;;;;1.33;0.90;;;;;;;;;;5137168;27;20201;-67
2023/05/17 07:05:51;;;;;;;2.08;1.10;;;;;;;;;;5136053;27;20229;-67
2023/05/17 07:08:19;;;;;;;1.10;1.00;;;;;;;;;;5136067;27;20593;-68
2023/05/17 07:10:47;;;;;;;1.80;1.10;;;;;;;;;;5136641;27;20232;-68
2023/05/17 07:13:16;;;;;;;2.53;1.20;;;;;;;;;;5136857;27;20212;-68
2023/05/17 07:15:44;;;;;;;1.98;1.23;;;;;;;;;;5136046;27;20201;-69
2023/05/17 07:18:12;;;;;;;1.83;1.30;;;;;;;;;;5136364;27;20210;-69
2023/05/17 07:20:39;;;;;;;2.08;1.20;;;;;;;;;;5136489;27;20194;-68
2023/05/17 07:23:07;;;;;;;1.40;1.20;;;;;;;;;;5135878;27;20308;-67
2023/05/17 07:25:37;;;;;;;1.67;1.30;;;;;;;;;;5136389;27;20493;-67
2023/05/17 07:28:05;;;;;;;1.45;1.30;;;;;;;;;;5135922;28;20249;-69
2023/05/17 07:30:34;;;;;;;1.42;1.30;;;;;;;;;;5137202;28;20210;-68
2023/05/17 07:33:02;;;;;;;2.08;1.30;;;;;;;;;;5136910;27;20203;-69
2023/05/17 07:35:29;;;;;;;2.22;1.20;;;;;;;;;;5135975;27;20190;-69
2023/05/17 07:37:57;;;;;;;2.00;1.30;;;;;;;;;;5136939;27;20198;-65
2023/05/17 07:40:24;;;;;;;1.80;1.40;;;;;;;;;;5136196;27;20212;-65
2023/05/17 07:42:52;;;;;;;1.75;1.35;;;;;;;;;;5135896;27;20287;-65
2023/05/17 07:45:20;;;;;;;3.35;1.80;;;;;;;;;;5135757;27;20214;-67
2023/05/17 07:47:49;;;;;;;1.42;1.33;;;;;;;;;;5135813;27;20206;-67
2023/05/17 07:50:16;;;;;;;1.80;1.50;;;;;;;;;;5136216;27;20202;-67
2023/05/17 07:52:44;;;;;;;2.38;1.60;;;;;;;;;;5136203;27;20206;-66
2023/05/17 07:55:11;;;;;;;2.67;1.60;;;;;;;;;;5135790;27;20234;-65
2023/05/17 07:57:39;;;;;;;2.38;1.38;;;;;;;;;;5137395;27;20230;-65
2023/05/17 08:00:11;;;;;;;2.35;1.60;;;;;;;;;;5140965;27;20554;-65
2023/05/17 08:02:38;;;;;;;1.77;1.40;;;;;;;;;;5139687;27;20198;-65
2023/05/17 08:05:08;;;;;;;2.70;1.27;;;;;;;;;;5140355;27;20226;-65
2023/05/17 08:07:35;;;;;;;2.28;1.63;;;;;;;;;;5140009;27;20202;-67
2023/05/17 08:10:03;;;;;;;1.60;1.40;;;;;;;;;;5139732;27;20220;-65
2023/05/17 08:12:31;;;;;;;2.13;1.50;;;;;;;;;;5140353;27;20202;-65
2023/05/17 08:14:58;;;;;;;2.22;1.40;;;;;;;;;;5139691;27;20202;-66
2023/05/17 08:17:26;;;;;;;1.67;1.40;;;;;;;;;;5139854;27;20243;-65
2023/05/17 08:19:53;;;;;;;1.73;1.50;;;;;;;;;;5139919;27;20206;-65
2023/05/17 08:22:22;;;;;;;2.97;1.70;;;;;;;;;;5139869;27;20219;-65
2023/05/17 08:24:50;;;;;;;2.00;1.48;;;;;;;;;;5139528;27;20306;-65
2023/05/17 08:27:17;;;;;;;2.05;1.48;;;;;;;;;;5139271;27;20330;-65
2023/05/17 08:29:45;;;;;;;2.50;1.20;;;;;;;;;;5139851;27;20540;-65
2023/05/17 08:32:12;;;;;;;1.52;1.30;;;;;;;;;;5139495;27;20210;-65
2023/05/17 08:34:40;;;;;;;1.80;1.20;;;;;;;;;;5139115;27;20504;-65
2023/05/17 08:37:08;;;;;;;2.35;1.30;;;;;;;;;;5139551;27;20202;-65
2023/05/17 08:39:38;;;;;;;1.60;1.40;;;;;;;;;;5138801;27;20213;-65
2023/05/17 08:42:08;;;;;;;2.10;1.50;;;;;;;;;;5139619;27;20212;-65
2023/05/17 08:44:37;;;;;;;1.75;1.40;;;;;;;;;;5139540;27;20222;-65
2023/05/17 08:47:05;;;;;;;2.20;1.30;;;;;;;;;;5139138;27;20194;-65
2023/05/17 08:49:36;;;;;;;1.85;1.50;;;;;;;;;;5139298;27;20300;-65
2023/05/17 08:52:08;;;;;;;2.80;1.50;;;;;;;;;;5139813;27;20266;-65
2023/05/17 08:54:38;;;;;;;1.95;1.30;;;;;;;;;;5138962;27;20281;-64
2023/05/17 08:57:06;;;;;;;1.40;1.30;;;;;;;;;;5139363;27;20210;-64
2023/05/17 08:59:35;;;;;;;1.92;1.50;;;;;;;;;;5139231;27;20199;-64
2023/05/17 09:02:02;;;;;;;1.38;1.27;;;;;;;;;;5139187;27;20194;-65
2023/05/17 09:04:30;;;;;;;1.33;1.23;;;;;;;;;;5139086;27;20202;-64
2023/05/17 09:06:59;;;;;;;1.77;1.45;;;;;;;;;;5138994;27;20206;-64
2023/05/17 09:09:26;;;;;;;1.52;1.23;;;;;;;;;;5139025;27;20203;-65
2023/05/17 09:11:55;;;;;;;1.77;1.15;;;;;;;;;;5139020;27;20571;-66
2023/05/17 09:14:23;;;;;;;1.55;1.40;;;;;;;;;;5138350;27;20210;-65
2023/05/17 09:16:56;;;;;;;1.30;1.20;;;;;;;;;;5138542;27;20205;-65
2023/05/17 09:19:24;;;;;;;1.55;1.45;;;;;;;;;;5139208;27;20530;-65
2023/05/17 09:21:51;;;;;;;2.33;1.50;;;;;;;;;;5139150;27;20202;-65
2023/05/17 09:24:20;;;;;;;1.80;1.40;;;;;;;;;;5138099;27;20206;-65
2023/05/17 09:26:47;;;;;;;1.40;1.20;;;;;;;;;;5138335;27;20342;-66
2023/05/17 09:29:17;;;;;;;1.67;1.20;;;;;;;;;;5138636;27;20221;-65
2023/05/17 09:31:45;;;;;;;1.75;1.50;;;;;;;;;;5137528;27;20582;-65
2023/05/17 09:34:13;;;;;;;1.50;1.23;;;;;;;;;;5137183;27;20658;-65
2023/05/17 09:36:43;;;;;;;1.83;1.35;;;;;;;;;;5137676;27;20206;-66
2023/05/17 09:39:13;;;;;;;1.50;1.33;;;;;;;;;;5137294;27;20618;-66
2023/05/17 09:41:45;;;;;;;1.55;1.45;;;;;;;;;;5136962;27;20232;-65
2023/05/17 09:44:13;;;;;;;1.42;1.08;;;;;;;;;;5137697;27;20202;-65
2023/05/17 09:46:43;;;;;;;1.60;1.30;;;;;;;;;;5137619;27;20243;-64
2023/05/17 09:49:11;;;;;;;2.17;1.30;;;;;;;;;;5137303;27;20198;-64
2023/05/17 09:51:41;;;;;;;1.50;1.30;;;;;;;;;;5136904;27;20202;-64
2023/05/17 09:54:09;;;;;;;1.40;1.30;;;;;;;;;;5136911;27;20202;-64
2023/05/17 09:56:37;;;;;;;1.40;1.20;;;;;;;;;;5137151;27;20201;-64
2023/05/17 09:59:05;;;;;;;1.20;1.10;;;;;;;;;;5136701;27;20321;-66
2023/05/17 10:01:33;;;;;;;1.80;1.30;;;;;;;;;;5137159;27;20202;-67
2023/05/17 10:04:02;;;;;;;2.22;1.20;;;;;;;;;;5136248;27;20593;-65
2023/05/17 10:06:30;;;;;;;1.20;1.10;;;;;;;;;;5136494;27;20308;-66
2023/05/17 10:08:59;;;;;;;1.58;1.33;;;;;;;;;;5135908;27;20202;-64
2023/05/17 10:11:32;;;;;;;1.52;1.10;;;;;;;;;;5137525;27;20207;-64
2023/05/17 10:14:06;;;;;;;1.13;1.02;;;;;;;;;;5136573;27;20305;-64
2023/05/17 10:16:34;;;;;;;1.38;1.27;;;;;;;;;;5136477;27;20290;-64
2023/05/17 10:19:03;;;;;;;1.50;1.40;;;;;;;;;;5137063;27;20301;-64
2023/05/17 10:21:32;;;;;;;1.40;1.30;;;;;;;;;;5136477;27;20296;-65
2023/05/17 10:24:01;;;;;;;1.30;1.20;;;;;;;;;;5137223;27;20236;-65
2023/05/17 10:26:28;;;;;;;2.15;1.60;;;;;;;;;;5136200;27;20293;-65
2023/05/17 10:28:59;;;;;;;1.13;1.00;;;;;;;;;;5136866;27;20202;-66
2023/05/17 10:31:28;;;;;;;1.30;1.20;;;;;;;;;;5136336;27;20213;-65
2023/05/17 10:33:56;;;;;;;1.20;1.10;;;;;;;;;;5136231;27;20292;-66
2023/05/17 10:36:25;;;;;;;2.03;1.30;;;;;;;;;;5136210;27;20198;-66
2023/05/17 10:38:53;;;;;;;1.42;1.20;;;;;;;;;;5136034;27;20199;-64
2023/05/17 10:41:22;;;;;;;1.58;1.13;;;;;;;;;;5135913;27;20235;-65
2023/05/17 10:43:50;;;;;;;1.05;0.95;;;;;;;;;;5136146;27;20574;-66
2023/05/17 10:46:20;;;;;;;1.75;1.20;;;;;;;;;;5135818;27;20234;-66
2023/05/17 10:48:49;;;;;;;1.40;1.20;;;;;;;;;;5136166;27;20640;-66
2023/05/17 10:51:17;;;;;;;1.20;1.10;;;;;;;;;;5136202;27;20213;-66
2023/05/17 10:54:03;;;;;;;1.20;1.10;;;;;;;;;;5136298;27;20701;-66
2023/05/17 10:56:33;;;;;;;1.83;1.30;;;;;;;;;;5136174;27;20198;-66
2023/05/17 10:59:18;;;;;;;1.23;1.13;;;;;;;;;;5136185;27;20213;-66
2023/05/17 11:01:53;;;;;;;1.25;1.15;;;;;;;;;;5136201;27;20210;-66
2023/05/17 11:04:22;;;;;;;1.23;1.13;;;;;;;;;;5136108;27;20490;-66
2023/05/17 11:06:52;;;;;;;1.30;1.13;;;;;;;;;;5135521;27;20226;-66
2023/05/17 11:09:22;;;;;;;1.15;1.05;;;;;;;;;;5134807;27;20202;-66
2023/05/17 11:12:08;;;;;;;1.50;1.30;;;;;;;;;;5135734;27;20205;-66
2023/05/17 11:14:49;;;;;;;1.60;1.13;;;;;;;;;;5135362;27;20270;-66
2023/05/17 11:17:17;;;;;;;1.10;1.00;;;;;;;;;;5134878;27;20202;-66
2023/05/17 11:20:10;;;;;;;1.40;1.30;;;;;;;;;;5134963;28;20293;-66
2023/05/17 11:22:38;;;;;;;1.63;1.30;;;;;;;;;;5124029;27;20259;-66
2023/05/17 11:25:10;;;;;;;1.30;1.20;;;;;;;;;;5134627;28;20202;-66
2023/05/17 11:27:45;;;;;;;1.25;1.10;;;;;;;;;;5134370;27;20303;-67
2023/05/17 11:30:19;;;;;;;1.20;1.10;;;;;;;;;;5133977;28;20197;-66
2023/05/17 11:32:54;;;;;;;1.30;1.20;;;;;;;;;;5135641;27;20569;-66
2023/05/17 11:35:24;;;;;;;1.20;1.10;;;;;;;;;;5136923;27;20202;-66
2023/05/17 11:37:53;;;;;;;1.33;1.23;;;;;;;;;;5137020;28;20255;-67
2023/05/17 11:40:30;;;;;;;1.20;1.10;;;;;;;;;;5137447;27;20216;-66
2023/05/17 11:43:18;;;;;;;1.20;1.10;;;;;;;;;;5138575;27;20201;-66
2023/05/17 11:45:49;;;;;;;1.88;1.20;;;;;;;;;;5137946;27;20226;-66
2023/05/17 11:48:17;;;;;;;1.20;1.10;;;;;;;;;;5139073;27;20263;-66
2023/05/17 11:50:45;;;;;;;1.20;1.10;;;;;;;;;;5137618;28;20226;-66
2023/05/17 11:53:13;;;;;;;1.10;1.00;;;;;;;;;;5137751;27;20263;-66
2023/05/17 11:55:42;;;;;;;1.10;1.00;;;;;;;;;;5137537;27;20190;-66
2023/05/17 11:58:10;;;;;;;1.25;1.15;;;;;;;;;;5136632;27;20198;-66
2023/05/17 12:00:40;;;;;;;1.27;1.10;;;;;;;;;;5137814;28;20297;-65
2023/05/17 12:03:21;;;;;;;1.20;1.10;;;;;;;;;;5137834;27;20203;-66
2023/05/17 12:05:50;;;;;;;2.38;1.30;;;;;;;;;;5137889;27;20221;-66
2023/05/17 12:08:18;;;;;;;1.73;1.30;;;;;;;;;;5136640;27;20481;-66
2023/05/17 12:10:47;;;;;;;1.10;1.00;;;;;;;;;;5138012;27;20263;-67
2023/05/17 12:13:14;;;;;;;1.23;1.13;;;;;;;;;;5138497;28;20256;-66
2023/05/17 12:15:45;;;;;;;1.15;1.05;;;;;;;;;;5137582;28;20579;-66
2023/05/17 12:18:12;;;;;;;1.25;1.15;;;;;;;;;;5137617;27;20493;-66
2023/05/17 12:20:53;;;;;;;1.02;0.95;;;;;;;;;;5136803;27;20210;-66
2023/05/17 12:23:26;;;;;;;1.30;1.20;;;;;;;;;;5138061;27;20206;-66
2023/05/17 12:26:02;;;;;;;1.08;1.00;;;;;;;;;;5136974;28;20226;-66
2023/05/17 12:28:30;;;;;;;1.17;1.08;;;;;;;;;;5090611;27;1356682;-66
2023/05/17 12:31:01;;;;;;;1.88;1.15;;;;;;;;;;5138869;27;20209;-66
2023/05/17 12:33:30;;;;;;;1.20;1.10;;;;;;;;;;5138227;27;20259;-66
2023/05/17 12:35:58;;;;;;;1.48;0.95;;;;;;;;;;5137980;27;20224;-66
2023/05/17 12:38:26;;;;;;;1.17;1.08;;;;;;;;;;5137170;27;20569;-66
2023/05/17 12:40:54;;;;;;;1.40;1.30;;;;;;;;;;5138087;27;20202;-66
2023/05/17 12:43:24;;;;;;;1.27;1.17;;;;;;;;;;5137833;27;20206;-66
2023/05/17 12:45:53;;;;;;;1.30;1.20;;;;;;;;;;5138005;27;20237;-66
2023/05/17 12:48:26;;;;;;;0.90;0.90;;;;;;;;;;5138558;27;20224;-67
2023/05/17 12:50:54;;;;;;;1.20;1.10;;;;;;;;;;5137897;27;20202;-66
2023/05/17 12:53:23;;;;;;;1.20;1.10;;;;;;;;;;5137485;27;20575;-66
2023/05/17 12:55:50;;;;;;;1.20;1.10;;;;;;;;;;5138653;27;20198;-66
2023/05/17 12:58:18;;;;;;;1.30;1.20;;;;;;;;;;5138260;27;20194;-66
2023/05/17 13:00:58;;;;;;;1.23;1.13;;;;;;;;;;5136895;27;20213;-66
2023/05/17 13:03:28;;;;;;;1.33;1.00;;;;;;;;;;5137255;27;20202;-66
2023/05/17 13:06:02;;;;;;;1.42;1.08;;;;;;;;;;5137396;27;20218;-66
2023/05/17 13:08:30;;;;;;;1.60;1.20;;;;;;;;;;5137304;27;20198;-66
2023/05/17 13:11:07;;;;;;;1.25;1.00;;;;;;;;;;5137771;27;20302;-66
2023/05/17 13:13:35;;;;;;;1.30;1.20;;;;;;;;;;5137578;27;20267;-65
2023/05/17 13:16:03;;;;;;;1.33;1.23;;;;;;;;;;5136885;27;20205;-67
2023/05/17 13:18:34;;;;;;;1.27;1.15;;;;;;;;;;5137706;27;20218;-66
2023/05/17 13:21:02;;;;;;;1.52;1.23;;;;;;;;;;5137329;27;20609;-66
2023/05/17 13:23:30;;;;;;;1.35;1.25;;;;;;;;;;5137400;27;20559;-66
2023/05/17 13:25:57;;;;;;;1.15;1.05;;;;;;;;;;5137799;27;20210;-67
2023/05/17 13:28:25;;;;;;;1.30;1.20;;;;;;;;;;5137486;27;20447;-66
2023/05/17 13:30:53;;;;;;;1.20;1.10;;;;;;;;;;5137404;27;20535;-66
2023/05/17 13:33:22;;;;;;;1.30;1.10;;;;;;;;;;5136698;27;20309;-66
2023/05/17 13:35:51;;;;;;;1.40;1.30;;;;;;;;;;5137120;27;20202;-66
2023/05/17 13:38:18;;;;;;;1.38;1.27;;;;;;;;;;5136647;27;20202;-66
2023/05/17 13:40:46;;;;;;;1.33;1.20;;;;;;;;;;5136591;27;20651;-66
2023/05/17 13:43:13;;;;;;;1.10;1.00;;;;;;;;;;5136920;27;20842;-68
2023/05/17 13:45:41;;;;;;;1.30;1.20;;;;;;;;;;5137158;27;20206;-66
2023/05/17 13:48:09;;;;;;;1.40;1.30;;;;;;;;;;5136462;27;20222;-66
2023/05/17 13:50:36;;;;;;;1.20;1.10;;;;;;;;;;5135441;27;20285;-66
2023/05/17 13:53:05;;;;;;;1.35;1.17;;;;;;;;;;5136269;27;20223;-66
2023/05/17 13:55:33;;;;;;;1.42;1.33;;;;;;;;;;5135623;27;20312;-66
2023/05/17 13:58:01;;;;;;;1.33;1.23;;;;;;;;;;5137545;27;20206;-66
2023/05/17 14:00:28;;;;;;;1.48;1.38;;;;;;;;;;5135837;27;20249;-66
2023/05/17 14:02:56;;;;;;;1.13;1.02;;;;;;;;;;5135464;27;20266;-67
2023/05/17 14:05:23;;;;;;;1.48;1.38;;;;;;;;;;5136416;27;20244;-66
2023/05/17 14:07:51;;;;;;;1.20;1.10;;;;;;;;;;5135596;27;20233;-66
2023/05/17 14:10:20;;;;;;;1.10;1.00;;;;;;;;;;5136334;27;20225;-66
2023/05/17 14:12:48;;;;;;;1.48;1.38;;;;;;;;;;5135761;27;20267;-66
2023/05/17 14:15:15;;;;;;;1.55;1.20;;;;;;;;;;5135751;27;20206;-66
2023/05/17 14:17:43;;;;;;;1.38;1.20;;;;;;;;;;5136010;27;20666;-66
2023/05/17 14:20:11;;;;;;;1.35;1.20;;;;;;;;;;5135850;27;20601;-66
2023/05/17 14:22:38;;;;;;;1.45;1.35;;;;;;;;;;5135633;27;20205;-66
2023/05/17 14:25:10;;;;;;;1.40;1.30;;;;;;;;;;5134999;27;20302;-66
2023/05/17 14:27:39;;;;;;;1.30;1.20;;;;;;;;;;5134295;27;20321;-66
2023/05/17 14:30:07;;;;;;;1.40;1.30;;;;;;;;;;5135160;27;20709;-66
2023/05/17 14:32:37;;;;;;;1.20;1.10;;;;;;;;;;5135492;27;20285;-66
2023/05/17 14:35:05;;;;;;;1.40;1.30;;;;;;;;;;5135240;27;20199;-66
2023/05/17 14:37:32;;;;;;;1.40;1.30;;;;;;;;;;5136101;27;20213;-66
2023/05/17 14:40:00;;;;;;;1.35;1.20;;;;;;;;;;5135748;27;20207;-66
2023/05/17 14:42:29;;;;;;;1.50;1.40;;;;;;;;;;5134503;27;20251;-66
2023/05/17 14:44:58;;;;;;;1.40;1.30;;;;;;;;;;5134864;27;20254;-66
2023/05/17 14:47:26;;;;;;;1.50;1.40;;;;;;;;;;5135347;27;20233;-66
2023/05/17 14:49:53;;;;;;;1.33;1.23;;;;;;;;;;5135405;27;20539;-66
2023/05/17 14:52:21;;;;;;;1.85;1.40;;;;;;;;;;5136163;27;20206;-66